Time;durP1;ratioP1;P1;durP2;ratioP2;P2;SDS_P1;SDS_P2;PMS_P1;PMS_P2;Temp;Humidity;BMP_temperature;BMP_pressure;BME280_temperature;BME280_humidity;BME280_pressure;Samples;Min_cycle;Max_cycle;Signal;HPM_P1;HPM_P2
2023/02/05 00:02:12;;;;;;;27.93;16.80;;;;;;;0.80;73.99;100902.92;1774053;80;21339;-56
2023/02/05 00:05:56;;;;;;;28.60;18.23;;;;;;;0.74;73.99;100900.17;1779062;80;21505;-56
2023/02/05 00:09:27;;;;;;;32.23;18.20;;;;;;;0.72;74.05;100895.83;1772884;78;21161;-59
2023/02/05 00:12:43;;;;;;;33.67;20.20;;;;;;;0.75;74.17;100904.58;1774239;80;21315;-59
2023/02/05 00:16:00;;;;;;;34.35;19.77;;;;;;;0.73;74.14;100899.77;1772573;80;21355;-59
2023/02/05 00:19:36;;;;;;;33.80;18.98;;;;;;;0.68;74.15;100899.20;1780766;80;21268;-57
2023/02/05 00:22:57;;;;;;;35.58;21.05;;;;;;;0.80;74.34;100896.19;1858386;76;22219;-56
2023/02/05 00:26:14;;;;;;;31.75;19.15;;;;;;;0.77;74.33;100898.61;1737058;82;21478;-56
2023/02/05 00:29:44;;;;;;;28.77;17.85;;;;;;;0.86;74.45;100893.08;1771906;80;21371;-58
2023/02/05 00:33:13;;;;;;;29.67;18.12;;;;;;;0.91;74.45;100903.07;1773226;80;21347;-57
2023/02/05 00:36:35;;;;;;;33.67;19.75;;;;;;;0.98;74.52;100901.70;1765190;80;21648;-56
2023/02/05 00:40:05;;;;;;;34.38;19.87;;;;;;;1.01;74.43;100902.84;1772442;80;21272;-58
2023/02/05 00:43:21;;;;;;;30.48;18.55;;;;;;;0.98;74.42;100909.80;1763937;80;21410;-56
2023/02/05 00:46:34;;;;;;;31.33;19.40;;;;;;;0.98;74.43;100905.24;1770154;80;21758;-56
2023/02/05 00:50:07;;;;;;;29.00;19.60;;;;;;;1.02;74.51;100908.13;1763973;80;21367;-58
2023/02/05 00:53:42;;;;;;;30.00;18.42;;;;;;;1.04;74.45;100914.30;1772818;80;21329;-59
2023/02/05 00:57:05;;;;;;;30.72;19.00;;;;;;;1.02;74.38;100909.48;1771801;80;21161;-59
2023/02/05 01:00:21;;;;;;;32.23;20.37;;;;;;;1.02;74.32;100904.56;1772949;80;21780;-59
2023/02/05 01:03:44;;;;;;;32.83;19.45;;;;;;;1.02;74.31;100907.26;1772215;80;21841;-58
2023/02/05 01:07:14;;;;;;;32.03;19.82;;;;;;;0.99;74.27;100913.73;1761823;80;21205;-58
2023/02/05 01:10:30;;;;;;;34.55;20.30;;;;;;;0.98;74.33;100914.67;1712176;82;21204;-59
2023/02/05 01:13:49;;;;;;;35.05;21.80;;;;;;;1.02;74.46;100913.52;1769945;80;21264;-58
2023/02/05 01:17:13;;;;;;;41.23;21.27;;;;;;;1.07;74.50;100920.83;1771835;79;21228;-59
2023/02/05 01:20:29;;;;;;;41.63;22.75;;;;;;;1.09;74.40;100922.06;1772024;79;21186;-58
2023/02/05 01:23:43;;;;;;;43.58;20.40;;;;;;;1.07;74.31;100928.91;1762874;80;21769;-58
2023/02/05 01:26:57;;;;;;;33.60;19.62;;;;;;;1.04;74.34;100934.98;1772149;80;21683;-58
2023/02/05 01:30:13;;;;;;;33.90;20.62;;;;;;;1.06;74.43;100927.67;1765647;80;21284;-56
2023/02/05 01:33:49;;;;;;;32.17;18.07;;;;;;;1.13;74.54;100925.80;1885943;76;22684;-59
2023/02/05 01:37:15;;;;;;;31.62;18.90;;;;;;;1.08;74.48;100931.98;1808809;78;21227;-56
2023/02/05 01:41:15;;;;;;;27.27;17.85;;;;;;;1.01;74.33;100927.98;1794671;78;21188;-56
2023/02/05 01:44:50;;;;;;;33.35;19.95;;;;;;;0.99;74.37;100939.34;1811090;79;21223;-56
2023/02/05 01:48:11;;;;;;;32.28;18.20;;;;;;;1.03;74.51;100940.84;1765556;79;21172;-56
2023/02/05 01:51:33;;;;;;;30.17;16.97;;;;;;;1.08;74.65;100939.19;1813050;79;21191;-59
2023/02/05 01:54:57;;;;;;;31.37;18.15;;;;;;;1.15;74.77;100931.96;1813101;79;21187;-57
2023/02/05 01:58:21;;;;;;;28.15;17.70;;;;;;;1.22;74.80;100935.95;1813352;79;21341;-59
2023/02/05 02:01:37;;;;;;;33.25;18.45;;;;;;;1.26;74.79;100937.97;1813300;79;21179;-56
2023/02/05 02:05:20;;;;;;;28.87;16.60;;;;;;;1.32;74.59;100938.42;1904554;74;22350;-57
2023/02/05 02:08:43;;;;;;;28.42;17.37;;;;;;;1.21;74.48;100939.63;1806048;79;21172;-56
2023/02/05 02:12:09;;;;;;;31.05;17.82;;;;;;;1.18;74.42;100950.62;1880797;76;21218;-58
2023/02/05 02:15:45;;;;;;;28.60;17.37;;;;;;;1.16;74.45;100948.50;1880537;76;21206;-56
2023/02/05 02:19:30;;;;;;;29.10;16.12;;;;;;;1.09;74.28;100956.64;1880142;76;21161;-57
2023/02/05 02:23:07;;;;;;;30.48;16.25;;;;;;;1.00;74.13;100951.84;1879081;76;21149;-58
2023/02/05 02:26:52;;;;;;;29.60;16.40;;;;;;;0.96;74.23;100950.33;1878181;76;21670;-58
2023/02/05 02:30:52;;;;;;;31.27;20.45;;;;;;;1.05;74.42;100952.88;1842562;76;28047;-58
2023/02/05 02:34:20;;;;;;;29.18;17.10;;;;;;;1.04;74.28;100956.08;1806350;79;21228;-58
2023/02/05 02:38:14;;;;;;;29.05;16.42;;;;;;;1.06;74.23;100956.81;1780188;79;21192;-58
2023/02/05 02:41:34;;;;;;;25.82;15.08;;;;;;;1.04;74.24;100966.86;1784985;79;21725;-58
2023/02/05 02:45:13;;;;;;;25.23;14.45;;;;;;;0.94;74.23;100972.47;1791507;79;21339;-57
2023/02/05 02:52:06;;;;;;;32.73;17.73;;;;;;;0.93;74.44;100968.05;1805268;79;21310;-59
2023/02/05 02:55:28;;;;;;;25.20;14.93;;;;;;;0.99;74.52;100971.69;1805762;79;21398;-58
2023/02/05 02:59:20;;;;;;;23.90;14.05;;;;;;;0.96;74.47;100973.23;1803337;79;21188;-56
2023/02/05 03:02:55;;;;;;;23.73;13.40;;;;;;;0.90;74.33;100972.30;1805452;79;21177;-57
2023/02/05 03:06:32;;;;;;;26.20;15.48;;;;;;;0.90;74.50;100972.30;1806089;79;21362;-58
2023/02/05 03:10:05;;;;;;;24.15;13.18;;;;;;;0.93;74.43;100969.39;1846337;76;22785;-57
2023/02/05 03:13:35;;;;;;;25.95;13.53;;;;;;;0.87;74.53;100967.08;1773644;79;21221;-56
2023/02/05 03:17:05;;;;;;;21.33;13.35;;;;;;;0.91;74.56;100970.45;1751482;81;21208;-56
2023/02/05 03:20:36;;;;;;;20.55;12.28;;;;;;;0.88;74.53;100968.83;1764833;80;21225;-56
2023/02/05 03:24:14;;;;;;;26.30;13.83;;;;;;;0.93;74.53;100969.87;1761909;79;21169;-59
2023/02/05 03:27:37;;;;;;;21.62;12.58;;;;;;;0.86;74.45;100968.06;1772479;80;21216;-58
2023/02/05 03:31:16;;;;;;;23.90;13.93;;;;;;;0.89;74.53;100959.77;1772134;79;21252;-58
2023/02/05 03:35:18;;;;;;;25.70;13.70;;;;;;;0.90;74.47;100977.69;1760280;79;21257;-59
2023/02/05 03:39:06;;;;;;;20.37;11.90;;;;;;;0.77;74.34;100966.45;1770225;80;21181;-59
2023/02/05 03:42:36;;;;;;;20.48;11.88;;;;;;;0.76;74.42;100971.46;1772268;79;21352;-58
2023/02/05 03:46:31;;;;;;;19.05;10.93;;;;;;;0.80;74.60;100976.55;1761183;80;21729;-57
2023/02/05 03:50:01;;;;;;;19.98;10.75;;;;;;;0.85;74.72;100968.16;1771689;79;21339;-56
2023/02/05 03:53:30;;;;;;;18.50;10.50;;;;;;;0.89;74.74;100981.33;1771871;80;21904;-57
2023/02/05 03:57:19;;;;;;;19.85;11.25;;;;;;;0.93;74.78;100976.14;1771685;80;21260;-59
2023/02/05 04:00:45;;;;;;;18.23;10.08;;;;;;;0.99;74.77;100983.81;1762369;79;21247;-57
2023/02/05 04:04:09;;;;;;;20.50;11.18;;;;;;;1.11;74.80;100987.54;1879307;76;22202;-58
2023/02/05 04:07:33;;;;;;;20.82;11.88;;;;;;;1.06;74.72;100987.81;1792898;79;21327;-60
2023/02/05 04:10:41;;;;;;;25.90;14.83;;;;;;;1.02;74.59;100993.52;1806153;79;21386;-60
2023/02/05 04:13:51;;;;;;;24.18;13.78;;;;;;;1.03;74.62;100993.41;1804215;79;21753;-58
2023/02/05 04:17:15;;;;;;;22.10;12.43;;;;;;;0.92;74.32;101001.84;1805008;79;22097;-58
2023/02/05 04:20:22;;;;;;;22.82;11.88;;;;;;;0.88;74.41;101009.25;1786517;79;21826;-59
2023/02/05 04:23:44;;;;;;;22.60;12.18;;;;;;;0.89;74.35;101007.40;1878345;76;23000;-56
2023/02/05 04:27:13;;;;;;;19.85;11.75;;;;;;;0.83;74.29;101009.15;1885804;76;22782;-58
2023/02/05 04:30:45;;;;;;;21.42;12.35;;;;;;;0.72;74.32;101012.55;1815707;76;21196;-56
2023/02/05 04:34:14;;;;;;;21.77;12.05;;;;;;;0.69;74.29;101019.48;1793690;78;21350;-57
2023/02/05 04:37:50;;;;;;;25.23;12.88;;;;;;;0.64;74.31;101017.56;1809291;79;21688;-57
2023/02/05 04:41:10;;;;;;;23.15;14.03;;;;;;;0.62;74.34;101019.47;1810566;78;21204;-58
2023/02/05 04:44:36;;;;;;;25.85;14.45;;;;;;;0.58;74.25;101017.95;1811611;78;21747;-59
2023/02/05 04:47:56;;;;;;;23.73;13.85;;;;;;;0.47;74.12;101025.85;1812765;79;21136;-59
2023/02/05 04:51:31;;;;;;;21.73;12.82;;;;;;;0.45;74.28;101029.58;1811367;78;21677;-58
2023/02/05 04:55:10;;;;;;;41.88;21.17;;;;;;;0.45;74.40;101025.07;1812040;78;21172;-57
2023/02/05 04:58:30;;;;;;;35.00;18.77;;;;;;;0.59;74.79;101037.19;1816403;79;21195;-59
2023/02/05 05:01:57;;;;;;;31.02;16.12;;;;;;;0.73;74.98;101033.63;1811412;79;21302;-60
2023/02/05 05:05:19;;;;;;;27.80;15.13;;;;;;;0.91;75.04;101027.91;1840818;76;22245;-58
2023/02/05 05:08:38;;;;;;;26.05;14.85;;;;;;;0.89;75.00;101033.00;1773897;79;21149;-59
2023/02/05 05:11:56;;;;;;;25.97;14.53;;;;;;;0.89;74.83;101039.27;1771968;80;21181;-59
2023/02/05 05:15:08;;;;;;;24.65;15.20;;;;;;;0.92;74.83;101036.38;1772638;79;21209;-59
2023/02/05 05:18:24;;;;;;;24.07;14.63;;;;;;;0.95;74.79;101036.17;1773881;79;21173;-59
2023/02/05 05:22:02;;;;;;;28.20;15.90;;;;;;;0.97;74.74;101042.34;1773060;79;21252;-57
2023/02/05 05:25:24;;;;;;;33.28;18.35;;;;;;;0.96;74.58;101053.22;1773163;79;21438;-57
2023/02/05 05:28:48;;;;;;;27.48;15.93;;;;;;;1.00;74.62;101054.27;1851047;76;22363;-57
2023/02/05 05:32:00;;;;;;;26.25;15.25;;;;;;;0.97;74.65;101057.63;1783433;79;21187;-58
2023/02/05 05:35:15;;;;;;;49.00;24.82;;;;;;;0.96;74.57;101068.91;1777948;79;21223;-59
2023/02/05 05:38:42;;;;;;;28.27;17.32;;;;;;;1.00;74.57;101067.73;1777795;79;21156;-60
2023/02/05 05:46:30;;;;;;;28.57;17.05;;;;;;;1.01;74.33;101076.23;1716363;81;21219;-58
2023/02/05 05:49:45;;;;;;;25.95;15.95;;;;;;;0.97;74.33;101093.55;1746254;80;21230;-60
2023/02/05 05:53:02;;;;;;;28.77;16.12;;;;;;;1.03;74.37;101098.54;1726174;83;21215;-60
2023/02/05 05:56:27;;;;;;;27.40;15.58;;;;;;;1.03;74.33;101091.80;1674206;84;21640;-59
2023/02/05 05:59:55;;;;;;;25.20;15.20;;;;;;;1.01;74.22;101096.92;1755890;80;21219;-59
2023/02/05 06:03:12;;;;;;;31.20;17.77;;;;;;;0.98;74.14;101105.20;1722366;83;21289;-59
2023/02/05 06:06:32;;;;;;;33.85;19.55;;;;;;;0.97;74.18;101106.14;1666545;84;21390;-59
2023/02/05 06:09:48;;;;;;;34.45;19.67;;;;;;;0.90;73.87;101108.39;1758295;80;21768;-57
2023/02/05 06:13:23;;;;;;;29.40;17.67;;;;;;;0.83;73.90;101115.59;1728223;80;21538;-58
2023/02/05 06:17:27;;;;;;;29.02;16.37;;;;;;;0.91;74.11;101115.97;1757897;81;21843;-57
2023/02/05 06:20:39;;;;;;;35.73;19.70;;;;;;;0.92;73.92;101119.92;1725952;81;21365;-59
2023/02/05 06:24:20;;;;;;;40.63;24.63;;;;;;;0.92;73.94;101125.81;1758367;80;21275;-57
2023/02/05 06:28:07;;;;;;;30.72;18.73;;;;;;;0.86;73.81;101131.09;1739850;81;21278;-57
2023/02/05 06:31:46;;;;;;;28.17;17.67;;;;;;;0.90;73.99;101134.47;1726370;81;21954;-57
2023/02/05 06:35:15;;;;;;;38.83;23.22;;;;;;;0.97;74.02;101142.53;1654351;84;21279;-57
2023/02/05 06:38:25;;;;;;;37.15;22.77;;;;;;;1.05;73.94;101145.61;1680128;85;21406;-59
2023/02/05 06:41:39;;;;;;;41.50;23.15;;;;;;;1.03;73.88;101151.10;1730500;81;21733;-60
2023/02/05 06:45:16;;;;;;;83.00;38.88;;;;;;;1.09;73.90;101152.09;1687725;80;21753;-57
2023/02/05 06:48:52;;;;;;;86.75;42.85;;;;;;;1.06;73.62;101161.69;1716019;81;22027;-59
2023/02/05 06:52:20;;;;;;;;;;;;;;;1.08;73.72;101166.52;1761057;81;21243;-57
2023/02/05 06:55:51;;;;;;;56.35;29.05;;;;;;;0.97;73.41;101160.93;1733958;81;20201;-60
2023/02/05 06:59:08;;;;;;;47.43;26.82;;;;;;;1.06;73.70;101163.54;1755015;82;21768;-59
2023/02/05 07:02:31;;;;;;;41.50;23.57;;;;;;;1.14;73.69;101170.16;1727531;82;21244;-60
2023/02/05 07:05:46;;;;;;;31.95;20.27;;;;;;;1.19;73.60;101169.39;1754824;82;21382;-59
2023/02/05 07:09:07;;;;;;;29.60;17.20;;;;;;;1.09;73.36;101160.17;1755029;82;21283;-59
2023/02/05 07:12:22;;;;;;;30.25;17.57;;;;;;;1.20;73.59;101153.62;1755055;82;21215;-60
2023/02/05 07:15:44;;;;;;;24.65;15.23;;;;;;;1.41;73.73;101158.11;1717023;82;21343;-59
2023/02/05 07:19:13;;;;;;;28.10;18.40;;;;;;;1.51;73.56;101158.75;1790758;80;21197;-58
2023/02/05 07:22:35;;;;;;;27.05;17.77;;;;;;;1.55;73.32;101166.17;1772881;80;21551;-58
2023/02/05 07:26:22;;;;;;;26.45;16.50;;;;;;;1.59;73.23;101172.25;1745774;80;21719;-57
2023/02/05 07:29:56;;;;;;;30.30;18.65;;;;;;;1.58;73.06;101172.72;1780869;79;21378;-58
2023/02/05 07:33:44;;;;;;;31.33;18.75;;;;;;;1.47;72.87;101166.65;1781518;79;21165;-57
2023/02/05 07:37:02;;;;;;;42.98;25.00;;;;;;;1.55;72.99;101168.37;1758051;80;21237;-58
2023/02/05 07:40:18;;;;;;;35.17;19.77;;;;;;;1.73;73.06;101177.60;1834706;76;22738;-58
2023/02/05 07:43:31;;;;;;;71.82;37.23;;;;;;;1.71;72.98;101176.83;1774301;80;21185;-57
2023/02/05 07:46:50;;;;;;;43.92;25.45;;;;;;;1.78;73.04;101174.09;1748715;80;21347;-58
2023/02/05 07:50:27;;;;;;;31.73;19.10;;;;;;;1.87;72.98;101179.75;1754226;81;21376;-57
2023/02/05 07:54:14;;;;;;;27.70;16.75;;;;;;;1.97;72.89;101174.13;1741980;81;21157;-57
2023/02/05 07:57:45;;;;;;;25.17;16.40;;;;;;;2.10;72.90;101180.45;1742047;82;21339;-59
2023/02/05 08:01:39;;;;;;;45.35;23.60;;;;;;;2.09;72.57;101178.73;1735354;82;21191;-57
2023/02/05 08:05:28;;;;;;;30.92;19.10;;;;;;;1.96;72.24;101176.46;1742387;81;21244;-60
2023/02/05 08:09:07;;;;;;;36.03;21.97;;;;;;;1.85;72.06;101178.12;1755490;81;21383;-58
2023/02/05 08:12:30;;;;;;;31.93;19.48;;;;;;;1.90;72.28;101188.14;1811466;79;21355;-58
2023/02/05 08:15:40;;;;;;;24.67;15.65;;;;;;;2.06;72.38;101178.06;1744039;82;21796;-59
2023/02/05 08:19:01;;;;;;;30.48;18.23;;;;;;;2.06;72.03;101190.21;1878331;76;22191;-57
2023/02/05 08:22:18;;;;;;;32.10;18.25;;;;;;;2.00;72.23;101187.42;1806335;79;21216;-58
2023/02/05 08:25:55;;;;;;;44.08;24.12;;;;;;;2.24;72.51;101188.48;1802647;79;21200;-57
2023/02/05 08:29:20;;;;;;;36.70;21.12;;;;;;;2.39;72.34;101187.94;1805119;79;21188;-58
2023/02/05 08:32:54;;;;;;;39.15;21.42;;;;;;;2.53;72.13;101195.96;1805903;79;21208;-58
2023/02/05 08:36:30;;;;;;;29.23;18.12;;;;;;;2.53;72.13;101195.96;1804306;79;21340;-57
2023/02/05 08:39:53;;;;;;;30.97;18.90;;;;;;;2.71;72.19;101196.06;1803233;79;21189;-58
2023/02/05 08:43:37;;;;;;;27.55;16.25;;;;;;;2.77;71.94;101203.73;1806066;79;21237;-58
2023/02/05 08:47:05;;;;;;;23.77;15.10;;;;;;;2.70;71.84;101202.41;1804905;79;21222;-61
2023/02/05 08:50:29;;;;;;;26.90;16.75;;;;;;;2.65;71.64;101198.69;1805826;79;21204;-60
2023/02/05 08:53:52;;;;;;;24.27;15.20;;;;;;;2.43;71.34;101207.00;1791871;79;21224;-60
2023/02/05 08:57:19;;;;;;;31.65;19.15;;;;;;;2.34;71.66;101203.59;1781311;80;21212;-59
2023/02/05 09:01:02;;;;;;;23.70;15.25;;;;;;;2.37;71.70;101200.67;1797137;79;21204;-58
2023/02/05 09:04:44;;;;;;;21.02;14.23;;;;;;;2.29;71.73;101207.95;1778328;79;21402;-59
2023/02/05 09:08:07;;;;;;;21.87;14.10;;;;;;;2.34;71.80;101201.77;1807422;78;21291;-57
2023/02/05 09:11:53;;;;;;;21.87;14.25;;;;;;;2.45;71.80;101208.66;1791006;79;21209;-57
2023/02/05 09:15:17;;;;;;;21.45;14.23;;;;;;;2.53;71.80;101212.17;1766083;80;21193;-58
2023/02/05 09:18:43;;;;;;;21.25;14.18;;;;;;;2.51;71.76;101203.30;1758324;80;21275;-58
2023/02/05 09:22:17;;;;;;;20.60;13.32;;;;;;;2.48;71.54;101210.27;1760691;80;21336;-57
2023/02/05 09:25:39;;;;;;;22.73;14.90;;;;;;;2.56;71.68;101218.24;1755180;80;21421;-58
2023/02/05 09:29:20;;;;;;;25.43;16.80;;;;;;;2.57;71.45;101215.06;1774758;80;21262;-60
2023/02/05 09:33:09;;;;;;;23.30;14.40;;;;;;;2.54;71.45;101223.35;1768220;81;21228;-58
2023/02/05 09:36:55;;;;;;;18.55;12.70;;;;;;;2.60;71.57;101224.31;1752752;81;21453;-58
2023/02/05 09:40:32;;;;;;;23.12;15.20;;;;;;;2.64;71.34;101227.17;1857057;76;22336;-57
2023/02/05 09:44:28;;;;;;;23.73;15.47;;;;;;;2.55;71.38;101230.52;1783803;79;21184;-57
2023/02/05 09:47:55;;;;;;;23.15;14.78;;;;;;;2.62;71.57;101231.33;1800177;79;21916;-60
2023/02/05 09:51:20;;;;;;;26.45;16.73;;;;;;;2.76;71.61;101238.00;1773914;80;21338;-61
2023/02/05 09:54:42;;;;;;;23.98;15.75;;;;;;;2.91;71.46;101223.44;1869065;76;22253;-61
2023/02/05 09:58:11;;;;;;;23.00;15.45;;;;;;;2.84;71.35;101231.58;1805187;79;21342;-60
2023/02/05 10:01:36;;;;;;;26.40;16.55;;;;;;;2.88;71.34;101227.70;1805068;79;21304;-60
2023/02/05 10:04:57;;;;;;;29.70;18.52;;;;;;;2.84;71.08;101227.53;1784233;79;21339;-58
2023/02/05 10:08:27;;;;;;;32.10;19.73;;;;;;;2.82;71.13;101236.22;1787274;79;21209;-57
2023/02/05 10:12:23;;;;;;;30.50;19.77;;;;;;;2.68;70.85;101235.47;1770099;79;21561;-57
2023/02/05 10:16:22;;;;;;;39.48;23.80;;;;;;;2.53;70.83;101233.31;1771366;79;21767;-56
2023/02/05 10:20:13;;;;;;;33.10;20.85;;;;;;;2.55;70.95;101238.11;1771720;80;21269;-60
2023/02/05 10:24:11;;;;;;;41.75;24.60;;;;;;;2.37;70.53;101239.84;1771920;80;21226;-60
2023/02/05 10:28:08;;;;;;;32.15;20.77;;;;;;;2.10;70.66;101241.68;1874940;75;20514;-60
2023/02/05 10:31:44;;;;;;;38.25;22.17;;;;;;;2.00;70.64;101244.13;1812879;77;21358;-60
2023/02/05 10:35:28;;;;;;;34.75;20.40;;;;;;;2.03;71.04;101245.77;1836325;75;21200;-59
2023/02/05 10:39:12;;;;;;;34.75;21.40;;;;;;;2.21;71.33;101251.29;1834430;76;21692;-57
2023/02/05 10:43:28;;;;;;;34.50;21.33;;;;;;;2.15;70.92;101249.88;1866798;75;22211;-58
2023/02/05 10:46:50;;;;;;;31.05;19.67;;;;;;;2.08;71.09;101254.45;1782141;79;21869;-59
2023/02/05 10:50:28;;;;;;;27.45;17.52;;;;;;;2.03;70.98;101251.17;1806458;79;21338;-57
2023/02/05 10:54:13;;;;;;;25.57;16.27;;;;;;;1.78;70.81;101261.34;1778461;79;21199;-56
2023/02/05 10:57:34;;;;;;;33.78;20.60;;;;;;;1.58;70.80;101255.48;1794611;79;21177;-57
2023/02/05 11:00:49;;;;;;;29.18;20.02;;;;;;;1.50;71.01;101264.07;1781986;78;22690;-60
2023/02/05 11:04:59;;;;;;;28.27;15.35;;;;;;;1.44;71.07;101261.77;1780536;79;21212;-57
2023/02/05 11:08:55;;;;;;;27.55;17.55;;;;;;;1.16;70.93;101269.35;1780547;78;21200;-57
2023/02/05 11:12:36;;;;;;;30.25;18.42;;;;;;;0.99;71.09;101272.70;1740053;82;21328;-56
2023/02/05 11:16:13;;;;;;;23.25;15.50;;;;;;;1.04;71.38;101277.33;1797995;79;21756;-58
2023/02/05 11:19:50;;;;;;;26.65;17.12;;;;;;;1.06;71.37;101283.50;1787372;78;21755;-57
2023/02/05 11:23:42;;;;;;;27.25;18.05;;;;;;;1.05;71.38;101282.62;1839633;76;22199;-57
2023/02/05 11:27:33;;;;;;;26.17;16.30;;;;;;;1.05;71.61;101288.02;1755891;80;21191;-58
2023/02/05 11:31:30;;;;;;;29.70;18.25;;;;;;;1.00;71.47;101282.53;1774730;79;21188;-57
2023/02/05 11:35:05;;;;;;;27.00;17.00;;;;;;;0.98;71.56;101282.60;1767678;80;22133;-57
2023/02/05 11:38:53;;;;;;;29.10;17.87;;;;;;;1.03;71.67;101276.95;1770212;80;21991;-57
2023/02/05 11:42:42;;;;;;;26.75;18.73;;;;;;;1.13;71.76;101281.67;1755399;80;21321;-59
2023/02/05 11:46:04;;;;;;;31.62;18.73;;;;;;;1.34;71.86;101283.52;1722972;82;21394;-59
2023/02/05 11:49:44;;;;;;;25.65;16.95;;;;;;;1.49;71.80;101285.28;1763138;80;21323;-60
2023/02/05 11:53:27;;;;;;;27.17;17.85;;;;;;;1.51;71.51;101276.11;1754453;80;21308;-61
2023/02/05 11:57:13;;;;;;;27.65;17.23;;;;;;;1.59;71.59;101278.83;1761138;81;21340;-57
2023/02/05 12:00:41;;;;;;;29.40;17.90;;;;;;;1.76;71.69;101281.30;1771078;80;21903;-59
2023/02/05 12:04:31;;;;;;;25.20;16.90;;;;;;;1.83;71.50;101282.62;1772415;80;21249;-57
2023/02/05 12:08:13;;;;;;;27.48;17.35;;;;;;;1.83;71.46;101288.91;1760238;81;21751;-60
2023/02/05 12:12:05;;;;;;;27.37;17.05;;;;;;;1.80;71.32;101293.16;1769081;80;21210;-58
2023/02/05 12:15:30;;;;;;;25.32;16.57;;;;;;;1.81;71.37;101287.28;1740308;82;21623;-58
2023/02/05 12:19:18;;;;;;;26.42;17.07;;;;;;;1.74;71.24;101300.77;1745446;81;21156;-58
2023/02/05 12:22:57;;;;;;;29.83;19.60;;;;;;;1.70;71.22;101297.89;1765589;79;21189;-56
2023/02/05 12:26:45;;;;;;;25.90;17.95;;;;;;;1.70;71.22;101297.89;1762589;80;22200;-57
2023/02/05 12:30:29;;;;;;;34.98;22.67;;;;;;;1.79;71.32;101296.83;1762433;81;21249;-57
2023/02/05 12:34:09;;;;;;;27.67;19.00;;;;;;;1.82;71.24;101303.84;1762606;80;21506;-58
2023/02/05 12:37:49;;;;;;;30.20;19.05;;;;;;;1.79;71.08;101307.63;1761409;81;21213;-61
2023/02/05 12:41:24;;;;;;;30.43;20.55;;;;;;;1.67;70.96;101308.85;1743184;81;21724;-60
2023/02/05 12:44:53;;;;;;;31.80;19.70;;;;;;;1.73;71.21;101312.03;1765094;79;21713;-60
2023/02/05 12:48:23;;;;;;;34.03;20.65;;;;;;;1.85;71.22;101320.72;1762780;81;21219;-59
2023/02/05 12:51:57;;;;;;;33.53;20.17;;;;;;;1.74;71.12;101319.66;1765443;81;21780;-60
2023/02/05 12:56:34;;;;;;;33.08;20.27;;;;;;;1.67;70.95;101334.48;1772434;80;21225;-61
2023/02/05 13:00:08;;;;;;;30.62;18.67;;;;;;;1.53;70.81;101331.32;1772470;80;21378;-60
2023/02/05 13:03:52;;;;;;;29.42;18.77;;;;;;;1.38;70.88;101328.20;1762468;79;21348;-60
2023/02/05 13:07:36;;;;;;;33.53;19.67;;;;;;;1.39;71.06;101325.45;1771652;80;21193;-57
2023/02/05 13:11:25;;;;;;;30.25;18.90;;;;;;;1.35;71.04;101335.14;1771658;80;21332;-57
2023/02/05 13:15:20;;;;;;;31.82;19.75;;;;;;;1.34;71.21;101334.30;1771066;80;21251;-60
2023/02/05 13:18:46;;;;;;;30.37;17.80;;;;;;;1.37;71.29;101334.11;1711048;83;22119;-59
2023/02/05 13:29:21;;;;;;;32.63;20.70;;;;;;;1.34;71.21;101347.78;1771405;80;21452;-60
2023/02/05 13:32:40;;;;;;;;;;;;;;;1.29;71.18;101349.02;1774259;81;21413;-60
2023/02/05 13:36:44;;;;;;;40.43;26.65;;;;;;;1.21;71.17;101349.95;1770831;80;20206;-61
2023/02/05 13:40:11;;;;;;;32.00;21.60;;;;;;;1.10;71.22;101354.66;1770737;81;21169;-60
2023/02/05 13:43:54;;;;;;;29.07;20.80;;;;;;;0.96;71.18;101357.33;1770127;81;21220;-60
2023/02/05 13:47:22;;;;;;;28.45;19.32;;;;;;;0.89;71.37;101365.37;1769110;81;21241;-58
2023/02/05 13:51:11;;;;;;;31.23;18.98;;;;;;;0.88;71.43;101360.95;1771139;81;21422;-58
2023/02/05 13:54:37;;;;;;;;;;;;;;;0.81;71.34;101354.67;1773970;79;21340;-61
2023/02/05 13:58:33;;;;;;;34.45;21.07;;;;;;;0.85;71.60;101363.83;1770974;80;20201;-57
2023/02/05 14:02:05;;;;;;;36.55;22.25;;;;;;;0.93;71.71;101373.69;1763825;80;21221;-57
2023/02/05 14:05:23;;;;;;;32.67;19.87;;;;;;;0.87;71.47;101375.36;1736171;81;21248;-61
2023/02/05 14:08:48;;;;;;;41.08;23.87;;;;;;;0.77;71.45;101376.89;1754515;81;21863;-59
2023/02/05 14:12:22;;;;;;;31.80;19.65;;;;;;;0.62;71.36;101379.61;1732747;82;21212;-57
2023/02/05 14:16:05;;;;;;;;;;;;;;;0.56;71.53;101387.55;1742936;81;21375;-59
2023/02/05 14:19:59;;;;;;;35.33;21.62;;;;;;;0.61;71.74;101390.85;1726409;81;20205;-58
2023/02/05 14:23:58;;;;;;;36.30;21.15;;;;;;;0.61;71.67;101396.71;1737291;81;21177;-56
2023/02/05 14:27:40;;;;;;;29.82;18.48;;;;;;;0.58;71.70;101392.38;1739595;82;21212;-56
2023/02/05 14:32:04;;;;;;;36.03;22.25;;;;;;;0.45;71.54;101402.11;1735674;81;21349;-57
2023/02/05 14:35:47;;;;;;;43.38;24.77;;;;;;;0.40;71.76;101404.19;1735351;82;21415;-58
2023/02/05 14:39:12;;;;;;;37.73;20.30;;;;;;;0.41;71.81;101404.60;1738809;82;21892;-61
2023/02/05 14:42:29;;;;;;;44.80;22.22;;;;;;;0.38;71.82;101400.70;1739073;82;21356;-61
2023/02/05 14:45:44;;;;;;;37.83;21.20;;;;;;;0.35;71.85;101410.81;1740349;82;21848;-61
2023/02/05 14:49:09;;;;;;;48.08;25.70;;;;;;;0.28;71.75;101419.70;1733773;81;21256;-58
2023/02/05 14:53:10;;;;;;;41.55;22.50;;;;;;;0.24;71.81;101424.84;1706327;82;21192;-58
2023/02/05 14:57:27;;;;;;;47.13;25.68;;;;;;;0.29;72.03;101432.66;1693183;85;21379;-58
2023/02/05 15:00:48;;;;;;;41.85;23.10;;;;;;;0.29;72.01;101425.47;1677838;85;21204;-59
2023/02/05 15:04:17;;;;;;;36.17;20.65;;;;;;;0.28;71.99;101440.36;1674367;85;21379;-58
2023/02/05 15:07:36;;;;;;;42.20;22.77;;;;;;;0.25;71.89;101444.11;1693369;84;21405;-60
2023/02/05 15:10:59;;;;;;;41.02;20.75;;;;;;;0.21;71.90;101443.02;1693538;84;21260;-61
2023/02/05 15:18:03;;;;;;;42.98;24.40;;;;;;;0.23;71.73;101455.43;1773228;80;21216;-60
2023/02/05 15:21:48;;;;;;;41.55;21.93;;;;;;;0.23;71.68;101456.78;1772422;79;21379;-62
2023/02/05 15:24:59;;;;;;;38.33;20.75;;;;;;;0.26;71.84;101461.98;1772794;79;21228;-60
2023/02/05 15:28:38;;;;;;;41.40;23.07;;;;;;;0.27;71.79;101465.06;1773832;80;21240;-61
2023/02/05 15:32:07;;;;;;;45.55;24.23;;;;;;;0.24;71.72;101473.31;1764605;80;21347;-60
2023/02/05 15:35:26;;;;;;;45.28;24.47;;;;;;;0.23;71.81;101475.62;1771346;79;21464;-59
2023/02/05 15:39:35;;;;;;;39.70;20.55;;;;;;;0.21;71.75;101477.52;1771610;79;21193;-58
2023/02/05 15:42:52;;;;;;;34.27;20.15;;;;;;;0.21;71.81;101478.02;1775286;79;21189;-59
2023/02/05 15:46:13;;;;;;;34.65;17.77;;;;;;;0.18;71.84;101479.51;1771463;79;21268;-61
2023/02/05 15:49:47;;;;;;;30.72;17.73;;;;;;;0.20;71.93;101485.22;1771737;79;21682;-60
2023/02/05 15:53:20;;;;;;;32.08;17.27;;;;;;;0.14;71.81;101492.29;1730568;80;21454;-58
2023/02/05 15:56:50;;;;;;;35.28;20.12;;;;;;;0.11;71.76;101501.00;1770337;81;21347;-57
2023/02/05 16:00:11;;;;;;;32.23;18.62;;;;;;;0.09;71.79;101499.73;1769678;79;21228;-61
2023/02/05 16:03:40;;;;;;;26.40;15.85;;;;;;;0.08;71.75;101507.39;1740416;82;21252;-60
2023/02/05 16:06:59;;;;;;;30.37;16.50;;;;;;;0.12;71.89;101514.38;1771476;80;21430;-62
2023/02/05 16:10:13;;;;;;;29.75;17.27;;;;;;;0.09;71.77;101511.85;1735197;81;21752;-60
2023/02/05 16:13:42;;;;;;;22.07;13.00;;;;;;;0.08;71.75;101515.97;1719743;80;21295;-60
2023/02/05 16:17:00;;;;;;;22.70;13.08;;;;;;;0.01;71.65;101512.73;1714689;81;21227;-61
2023/02/05 16:20:37;;;;;;;21.02;13.28;;;;;;;-0.03;71.63;101528.63;1736942;80;21263;-61
2023/02/05 16:24:26;;;;;;;21.27;13.18;;;;;;;-0.12;71.47;101538.08;1679978;81;21279;-60
2023/02/05 16:28:19;;;;;;;25.45;13.65;;;;;;;-0.23;71.50;101545.84;1735216;81;21330;-58
2023/02/05 16:31:55;;;;;;;23.02;12.88;;;;;;;-0.30;71.40;101547.09;1735277;81;21196;-58
2023/02/05 16:35:38;;;;;;;22.98;13.80;;;;;;;-0.33;71.48;101549.94;1751107;80;21201;-60
2023/02/05 16:39:04;;;;;;;22.13;13.50;;;;;;;-0.33;71.52;101543.22;1759452;80;21311;-61